< < Back
Terminal Aerodrome Forecast


Current Version              Previous Versions:   1  2  3  4  5  6  7  8  9  

Terminal Aerodrome Forecast

418
FTUS42 KGSP 301100
TAFGSP
TAF
KGSP 301120Z 3012/0112 00000KT 4SM BR FEW006
      TEMPO 3012/3013 1SM BR OVC006
     FM301300 00000KT 3SM BR SCT006
     FM301400 VRB03KT P6SM FEW050
     FM010700 00000KT 4SM BR FEW250=



Latest METAR

815
SAUS70 KWBC 301700 RRC
MTRGSP
METAR KGSP 301653Z 33004KT 10SM CLR 26/16 A2993 RMK AO2 SLP124
T02560161


USA.gov is the U.S. government's official web portal to all federal, state and local government web resources and services.